sensor_id;sensor_type;location;lat;lon;timestamp;pressure;altitude;pressure_sealevel;temperature;humidity
49627;BME280;35527;54.616;39.786;2023-02-04T00:00:50;99526.50;;;0.49;100.00
49627;BME280;35527;54.616;39.786;2023-02-04T00:03:53;99537.56;;;0.34;100.00
49627;BME280;35527;54.616;39.786;2023-02-04T00:06:56;99516.38;;;0.19;100.00
49627;BME280;35527;54.616;39.786;2023-02-04T00:10:00;99518.09;;;0.16;100.00
49627;BME280;35527;54.616;39.786;2023-02-04T00:13:08;99524.81;;;0.37;100.00
49627;BME280;35527;54.616;39.786;2023-02-04T00:16:10;99538.41;;;0.47;100.00
49627;BME280;35527;54.616;39.786;2023-02-04T00:19:14;99518.94;;;0.27;100.00
49627;BME280;35527;54.616;39.786;2023-02-04T00:22:18;99548.59;;;0.36;100.00
49627;BME280;35527;54.616;39.786;2023-02-04T00:25:24;99524.03;;;0.29;100.00
49627;BME280;35527;54.616;39.786;2023-02-04T00:28:26;99548.59;;;0.43;100.00
49627;BME280;35527;54.616;39.786;2023-02-04T00:31:31;99555.38;;;0.38;100.00
49627;BME280;35527;54.616;39.786;2023-02-04T00:34:35;99554.53;;;0.33;100.00
49627;BME280;35527;54.616;39.786;2023-02-04T00:37:40;99557.09;;;0.38;100.00
49627;BME280;35527;54.616;39.786;2023-02-04T00:40:42;99554.56;;;0.35;100.00
49627;BME280;35527;54.616;39.786;2023-02-04T00:43:49;99557.91;;;0.41;100.00
49627;BME280;35527;54.616;39.786;2023-02-04T00:46:52;99545.22;;;0.29;100.00
49627;BME280;35527;54.616;39.786;2023-02-04T00:49:55;99552.00;;;0.26;100.00
49627;BME280;35527;54.616;39.786;2023-02-04T00:52:58;99552.88;;;0.29;100.00
49627;BME280;35527;54.616;39.786;2023-02-04T00:56:05;99539.31;;;0.21;100.00
49627;BME280;35527;54.616;39.786;2023-02-04T00:59:11;99552.88;;;0.26;100.00
49627;BME280;35527;54.616;39.786;2023-02-04T01:02:15;99565.59;;;0.18;100.00
49627;BME280;35527;54.616;39.786;2023-02-04T01:05:19;99557.97;;;0.09;100.00
49627;BME280;35527;54.616;39.786;2023-02-04T01:08:27;99573.22;;;0.43;100.00
49627;BME280;35527;54.616;39.786;2023-02-04T01:11:33;99562.19;;;0.38;100.00
49627;BME280;35527;54.616;39.786;2023-02-04T01:14:38;99546.06;;;0.27;100.00
49627;BME280;35527;54.616;39.786;2023-02-04T01:17:40;99542.69;;;0.21;100.00
49627;BME280;35527;54.616;39.786;2023-02-04T01:20:47;99572.34;;;0.38;100.00
49627;BME280;35527;54.616;39.786;2023-02-04T01:23:51;99547.78;;;0.23;100.00
49627;BME280;35527;54.616;39.786;2023-02-04T01:27:37;99541.00;;;0.16;100.00
49627;BME280;35527;54.616;39.786;2023-02-04T01:30:40;99571.53;;;0.22;100.00
49627;BME280;35527;54.616;39.786;2023-02-04T01:33:46;99579.16;;;0.20;100.00
49627;BME280;35527;54.616;39.786;2023-02-04T01:36:49;99569.00;;;0.13;100.00
49627;BME280;35527;54.616;39.786;2023-02-04T01:39:54;99560.50;;;0.14;100.00
49627;BME280;35527;54.616;39.786;2023-02-04T01:42:56;99570.69;;;0.14;100.00
49627;BME280;35527;54.616;39.786;2023-02-04T01:46:06;99564.75;;;0.07;100.00
49627;BME280;35527;54.616;39.786;2023-02-04T01:49:11;99562.19;;;-0.01;100.00
49627;BME280;35527;54.616;39.786;2023-02-04T01:52:14;99530.84;;;-0.13;100.00
49627;BME280;35527;54.616;39.786;2023-02-04T01:55:19;99570.69;;;0.09;100.00
49627;BME280;35527;54.616;39.786;2023-02-04T01:58:30;99574.09;;;0.13;100.00
49627;BME280;35527;54.616;39.786;2023-02-04T02:04:38;99593.59;;;0.02;100.00
49627;BME280;35527;54.616;39.786;2023-02-04T02:07:43;99580.03;;;-0.19;100.00
49627;BME280;35527;54.616;39.786;2023-02-04T02:10:52;99588.47;;;-0.03;100.00
49627;BME280;35527;54.616;39.786;2023-02-04T02:13:59;99574.94;;;-0.34;100.00
49627;BME280;35527;54.616;39.786;2023-02-04T02:17:28;99574.94;;;-0.28;100.00
49627;BME280;35527;54.616;39.786;2023-02-04T02:20:31;99574.09;;;-0.13;100.00
49627;BME280;35527;54.616;39.786;2023-02-04T02:23:46;99601.22;;;-0.09;100.00
49627;BME280;35527;54.616;39.786;2023-02-04T02:26:55;99607.16;;;-0.10;100.00
49627;BME280;35527;54.616;39.786;2023-02-04T02:29:59;99586.81;;;-0.22;100.00
49627;BME280;35527;54.616;39.786;2023-02-04T02:33:02;99612.22;;;-0.09;100.00
49627;BME280;35527;54.616;39.786;2023-02-04T02:36:12;99607.97;;;-0.17;100.00
49627;BME280;35527;54.616;39.786;2023-02-04T02:39:18;99613.94;;;-0.06;100.00
49627;BME280;35527;54.616;39.786;2023-02-04T02:42:21;99611.41;;;-0.11;100.00
49627;BME280;35527;54.616;39.786;2023-02-04T02:45:26;99615.63;;;-0.07;100.00
49627;BME280;35527;54.616;39.786;2023-02-04T02:48:30;99608.84;;;-0.11;100.00
49627;BME280;35527;54.616;39.786;2023-02-04T02:51:35;99585.94;;;-0.28;100.00
49627;BME280;35527;54.616;39.786;2023-02-04T02:54:39;99614.78;;;-0.16;100.00
49627;BME280;35527;54.616;39.786;2023-02-04T02:57:44;99609.69;;;-0.21;100.00
49627;BME280;35527;54.616;39.786;2023-02-04T03:00:48;99591.84;;;-0.32;100.00
49627;BME280;35527;54.616;39.786;2023-02-04T03:04:44;99591.03;;;-0.18;100.00
49627;BME280;35527;54.616;39.786;2023-02-04T03:07:52;99606.31;;;-0.14;100.00
49627;BME280;35527;54.616;39.786;2023-02-04T03:10:56;99631.75;;;0.02;100.00
49627;BME280;35527;54.616;39.786;2023-02-04T03:13:59;99622.41;;;-0.07;100.00
49627;BME280;35527;54.616;39.786;2023-02-04T03:17:08;99632.56;;;-0.09;100.00
49627;BME280;35527;54.616;39.786;2023-02-04T03:20:26;99627.50;;;-0.16;100.00
49627;BME280;35527;54.616;39.786;2023-02-04T03:23:33;99620.69;;;-0.28;100.00
49627;BME280;35527;54.616;39.786;2023-02-04T03:26:38;99643.53;;;-0.43;100.00
49627;BME280;35527;54.616;39.786;2023-02-04T03:29:43;99640.13;;;-0.56;100.00
49627;BME280;35527;54.616;39.786;2023-02-04T03:32:48;99629.91;;;-0.73;100.00
49627;BME280;35527;54.616;39.786;2023-02-04T03:35:53;99641.75;;;-0.71;100.00
49627;BME280;35527;54.616;39.786;2023-02-04T03:38:56;99646.00;;;-0.71;100.00
49627;BME280;35527;54.616;39.786;2023-02-04T03:42:24;99644.34;;;-0.57;100.00
49627;BME280;35527;54.616;39.786;2023-02-04T03:45:26;99629.03;;;-0.78;100.00
49627;BME280;35527;54.616;39.786;2023-02-04T03:48:35;99652.75;;;-0.76;100.00
49627;BME280;35527;54.616;39.786;2023-02-04T03:51:40;99653.66;;;-0.59;100.00
49627;BME280;35527;54.616;39.786;2023-02-04T03:54:43;99666.34;;;-0.62;100.00
49627;BME280;35527;54.616;39.786;2023-02-04T03:57:46;99652.78;;;-0.70;100.00
49627;BME280;35527;54.616;39.786;2023-02-04T04:00:50;99664.63;;;-0.68;100.00
49627;BME280;35527;54.616;39.786;2023-02-04T04:03:53;99648.44;;;-0.94;100.00
49627;BME280;35527;54.616;39.786;2023-02-04T04:06:59;99674.72;;;-0.86;100.00
49627;BME280;35527;54.616;39.786;2023-02-04T04:10:02;99683.19;;;-0.84;100.00
49627;BME280;35527;54.616;39.786;2023-02-04T04:13:05;99661.22;;;-0.79;100.00
49627;BME280;35527;54.616;39.786;2023-02-04T04:16:08;99680.75;;;-0.69;100.00
49627;BME280;35527;54.616;39.786;2023-02-04T04:19:15;99682.44;;;-0.68;100.00
49627;BME280;35527;54.616;39.786;2023-02-04T04:22:17;99666.31;;;-0.76;100.00
49627;BME280;35527;54.616;39.786;2023-02-04T04:25:22;99679.03;;;-0.68;100.00
49627;BME280;35527;54.616;39.786;2023-02-04T04:28:26;99692.59;;;-0.71;100.00
49627;BME280;35527;54.616;39.786;2023-02-04T04:31:54;99690.06;;;-0.61;100.00
49627;BME280;35527;54.616;39.786;2023-02-04T04:34:58;99678.22;;;-0.62;100.00
49627;BME280;35527;54.616;39.786;2023-02-04T04:38:01;99682.41;;;-0.77;100.00
49627;BME280;35527;54.616;39.786;2023-02-04T04:41:05;99702.84;;;-0.51;100.00
49627;BME280;35527;54.616;39.786;2023-02-04T04:44:09;99711.31;;;-0.44;100.00
49627;BME280;35527;54.616;39.786;2023-02-04T04:47:13;99708.78;;;-0.47;100.00
49627;BME280;35527;54.616;39.786;2023-02-04T04:50:18;99707.88;;;-0.63;100.00
49627;BME280;35527;54.616;39.786;2023-02-04T04:53:23;99710.38;;;-0.68;100.00
49627;BME280;35527;54.616;39.786;2023-02-04T04:56:27;99700.25;;;-0.61;100.00
49627;BME280;35527;54.616;39.786;2023-02-04T04:59:30;99694.25;;;-0.76;100.00
49627;BME280;35527;54.616;39.786;2023-02-04T05:02:34;99701.91;;;-0.63;100.00
49627;BME280;35527;54.616;39.786;2023-02-04T05:05:41;99700.28;;;-0.52;100.00
49627;BME280;35527;54.616;39.786;2023-02-04T05:08:47;99719.78;;;-0.43;100.00
49627;BME280;35527;54.616;39.786;2023-02-04T05:11:49;99718.09;;;-0.48;100.00
49627;BME280;35527;54.616;39.786;2023-02-04T05:14:55;99735.03;;;-0.48;100.00
49627;BME280;35527;54.616;39.786;2023-02-04T05:17:59;99724.00;;;-0.52;100.00
49627;BME280;35527;54.616;39.786;2023-02-04T05:21:03;99701.94;;;-0.60;100.00
49627;BME280;35527;54.616;39.786;2023-02-04T05:24:09;99725.69;;;-0.52;100.00
49627;BME280;35527;54.616;39.786;2023-02-04T05:27:12;99712.06;;;-0.70;100.00
49627;BME280;35527;54.616;39.786;2023-02-04T05:30:16;99712.94;;;-0.61;100.00
49627;BME280;35527;54.616;39.786;2023-02-04T05:33:46;99735.03;;;-0.54;100.00
49627;BME280;35527;54.616;39.786;2023-02-04T05:36:51;99743.50;;;-0.49;100.00
49627;BME280;35527;54.616;39.786;2023-02-04T05:39:56;99721.50;;;-0.46;100.00
49627;BME280;35527;54.616;39.786;2023-02-04T05:43:00;99730.03;;;-0.31;100.00
49627;BME280;35527;54.616;39.786;2023-02-04T05:46:03;99758.81;;;-0.38;100.00
49627;BME280;35527;54.616;39.786;2023-02-04T05:49:07;99761.38;;;-0.32;100.00
49627;BME280;35527;54.616;39.786;2023-02-04T05:52:11;99752.84;;;-0.37;100.00
49627;BME280;35527;54.616;39.786;2023-02-04T05:55:16;99758.75;;;-0.51;100.00
49627;BME280;35527;54.616;39.786;2023-02-04T05:58:20;99739.25;;;-0.56;100.00
49627;BME280;35527;54.616;39.786;2023-02-04T06:01:23;99770.63;;;-0.43;100.00
49627;BME280;35527;54.616;39.786;2023-02-04T06:04:30;99782.47;;;-0.53;100.00
49627;BME280;35527;54.616;39.786;2023-02-04T06:07:33;99768.16;;;-0.34;100.00
49627;BME280;35527;54.616;39.786;2023-02-04T06:10:40;99786.88;;;-0.14;100.00
49627;BME280;35527;54.616;39.786;2023-02-04T06:13:43;99763.03;;;-0.40;100.00
49627;BME280;35527;54.616;39.786;2023-02-04T06:16:49;99795.25;;;-0.32;100.00
49627;BME280;35527;54.616;39.786;2023-02-04T06:19:52;99792.75;;;-0.30;100.00
49627;BME280;35527;54.616;39.786;2023-02-04T06:22:56;99772.38;;;-0.39;100.00
49627;BME280;35527;54.616;39.786;2023-02-04T06:26:04;99773.19;;;-0.43;100.00
49627;BME280;35527;54.616;39.786;2023-02-04T06:29:10;99787.66;;;-0.29;100.00
49627;BME280;35527;54.616;39.786;2023-02-04T06:32:14;99797.00;;;-0.28;100.00
49627;BME280;35527;54.616;39.786;2023-02-04T06:35:19;99772.34;;;-0.44;100.00
49627;BME280;35527;54.616;39.786;2023-02-04T06:38:24;99798.69;;;-0.27;100.00
49627;BME280;35527;54.616;39.786;2023-02-04T06:41:28;99779.16;;;-0.34;100.00
49627;BME280;35527;54.616;39.786;2023-02-04T06:44:35;99799.59;;;-0.11;100.00
49627;BME280;35527;54.616;39.786;2023-02-04T06:47:39;99802.97;;;-0.15;100.00
49627;BME280;35527;54.616;39.786;2023-02-04T06:50:44;99790.22;;;-0.24;100.00
49627;BME280;35527;54.616;39.786;2023-02-04T06:53:50;99797.03;;;-0.20;100.00
49627;BME280;35527;54.616;39.786;2023-02-04T06:56:55;99803.78;;;-0.25;100.00
49627;BME280;35527;54.616;39.786;2023-02-04T07:00:06;99807.94;;;-0.38;100.00
49627;BME280;35527;54.616;39.786;2023-02-04T07:03:10;99792.63;;;-0.56;100.00
49627;BME280;35527;54.616;39.786;2023-02-04T07:06:14;99802.13;;;-0.17;100.00
49627;BME280;35527;54.616;39.786;2023-02-04T07:09:18;99809.72;;;-0.21;100.00
49627;BME280;35527;54.616;39.786;2023-02-04T07:12:23;99797.81;;;-0.33;100.00
49627;BME280;35527;54.616;39.786;2023-02-04T07:15:29;99779.16;;;-0.37;100.00
49627;BME280;35527;54.616;39.786;2023-02-04T07:18:33;99792.72;;;-0.32;100.00
49627;BME280;35527;54.616;39.786;2023-02-04T07:21:36;99820.75;;;-0.18;100.00
49627;BME280;35527;54.616;39.786;2023-02-04T07:24:40;99807.16;;;-0.26;100.00
49627;BME280;35527;54.616;39.786;2023-02-04T07:28:07;99796.06;;;-0.43;100.00
49627;BME280;35527;54.616;39.786;2023-02-04T07:31:13;99792.69;;;-0.38;100.00
49627;BME280;35527;54.616;39.786;2023-02-04T07:34:19;99810.59;;;-0.18;100.00
49627;BME280;35527;54.616;39.786;2023-02-04T07:37:25;99826.72;;;-0.13;100.00
49627;BME280;35527;54.616;39.786;2023-02-04T07:40:29;99810.47;;;-0.44;100.00
49627;BME280;35527;54.616;39.786;2023-02-04T07:43:32;99840.31;;;-0.03;100.00
49627;BME280;35527;54.616;39.786;2023-02-04T07:46:35;99835.13;;;-0.28;100.00
49627;BME280;35527;54.616;39.786;2023-02-04T07:49:41;99839.41;;;-0.17;100.00
49627;BME280;35527;54.616;39.786;2023-02-04T07:52:47;99833.56;;;-0.06;100.00
49627;BME280;35527;54.616;39.786;2023-02-04T07:55:51;99847.94;;;-0.09;100.00
49627;BME280;35527;54.616;39.786;2023-02-04T07:59:20;99840.38;;;0.05;100.00
49627;BME280;35527;54.616;39.786;2023-02-04T08:02:23;99827.59;;;-0.06;100.00
49627;BME280;35527;54.616;39.786;2023-02-04T08:05:28;99839.47;;;-0.04;100.00
49627;BME280;35527;54.616;39.786;2023-02-04T08:08:35;99849.72;;;0.10;100.00
49627;BME280;35527;54.616;39.786;2023-02-04T08:11:39;99831.78;;;-0.14;100.00
49627;BME280;35527;54.616;39.786;2023-02-04T08:14:43;99846.19;;;-0.19;100.00
49627;BME280;35527;54.616;39.786;2023-02-04T08:17:46;99854.75;;;-0.02;100.00
49627;BME280;35527;54.616;39.786;2023-02-04T08:20:51;99853.91;;;-0.01;100.00
49627;BME280;35527;54.616;39.786;2023-02-04T08:23:53;99832.75;;;0.09;100.00
49627;BME280;35527;54.616;39.786;2023-02-04T08:26:58;99833.59;;;0.11;100.00
49627;BME280;35527;54.616;39.786;2023-02-04T08:30:02;99857.38;;;0.26;100.00
49627;BME280;35527;54.616;39.786;2023-02-04T08:33:06;99833.63;;;0.19;100.00
49627;BME280;35527;54.616;39.786;2023-02-04T08:36:11;99854.06;;;0.42;100.00
49627;BME280;35527;54.616;39.786;2023-02-04T08:39:20;99860.00;;;0.49;100.00
49627;BME280;35527;54.616;39.786;2023-02-04T08:42:25;99848.09;;;0.40;100.00
49627;BME280;35527;54.616;39.786;2023-02-04T08:45:29;99861.69;;;0.39;100.00
49627;BME280;35527;54.616;39.786;2023-02-04T08:48:33;99854.91;;;0.41;100.00
49627;BME280;35527;54.616;39.786;2023-02-04T08:51:37;99862.53;;;0.39;100.00
49627;BME280;35527;54.616;39.786;2023-02-04T08:54:41;99836.22;;;0.36;100.00
49627;BME280;35527;54.616;39.786;2023-02-04T08:57:46;99854.94;;;0.53;100.00
49627;BME280;35527;54.616;39.786;2023-02-04T09:00:53;99871.09;;;0.66;100.00
49627;BME280;35527;54.616;39.786;2023-02-04T09:04:22;99882.97;;;0.62;100.00
49627;BME280;35527;54.616;39.786;2023-02-04T09:07:25;99885.56;;;0.75;100.00
49627;BME280;35527;54.616;39.786;2023-02-04T09:10:29;99880.44;;;0.79;100.00
49627;BME280;35527;54.616;39.786;2023-02-04T09:13:32;99882.97;;;0.67;100.00
49627;BME280;35527;54.616;39.786;2023-02-04T09:16:38;99884.66;;;0.68;100.00
49627;BME280;35527;54.616;39.786;2023-02-04T09:19:44;99868.53;;;0.64;100.00
49627;BME280;35527;54.616;39.786;2023-02-04T09:23:13;99883.00;;;0.85;100.00
49627;BME280;35527;54.616;39.786;2023-02-04T09:26:17;99870.25;;;0.79;100.00
49627;BME280;35527;54.616;39.786;2023-02-04T09:29:20;99889.81;;;0.89;100.00
49627;BME280;35527;54.616;39.786;2023-02-04T09:32:24;99867.72;;;0.82;100.00
49627;BME280;35527;54.616;39.786;2023-02-04T09:35:27;99895.75;;;0.96;100.00
49627;BME280;35527;54.616;39.786;2023-02-04T09:38:32;99891.50;;;1.00;100.00
49627;BME280;35527;54.616;39.786;2023-02-04T09:41:43;99879.63;;;0.96;100.00
49627;BME280;35527;54.616;39.786;2023-02-04T09:44:52;99909.38;;;1.10;100.00
49627;BME280;35527;54.616;39.786;2023-02-04T09:48:00;99896.59;;;0.81;100.00
49627;BME280;35527;54.616;39.786;2023-02-04T09:51:06;99908.47;;;0.85;100.00
49627;BME280;35527;54.616;39.786;2023-02-04T09:54:14;99893.19;;;0.79;100.00
49627;BME280;35527;54.616;39.786;2023-02-04T09:57:20;99885.50;;;0.68;100.00
49627;BME280;35527;54.616;39.786;2023-02-04T10:00:26;99899.97;;;0.66;100.00
49627;BME280;35527;54.616;39.786;2023-02-04T10:03:34;99910.97;;;0.59;100.00
49627;BME280;35527;54.616;39.786;2023-02-04T10:06:39;99918.63;;;0.64;100.00
49627;BME280;35527;54.616;39.786;2023-02-04T10:09:44;99922.88;;;0.68;100.00
49627;BME280;35527;54.616;39.786;2023-02-04T10:12:52;99925.47;;;0.79;100.00
49627;BME280;35527;54.616;39.786;2023-02-04T10:15:57;99927.19;;;0.92;100.00
49627;BME280;35527;54.616;39.786;2023-02-04T10:19:05;99925.50;;;0.99;100.00
49627;BME280;35527;54.616;39.786;2023-02-04T10:22:15;99931.47;;;1.13;100.00
49627;BME280;35527;54.616;39.786;2023-02-04T10:25:21;99922.09;;;1.20;100.00
49627;BME280;35527;54.616;39.786;2023-02-04T10:28:33;99902.56;;;1.22;100.00
49627;BME280;35527;54.616;39.786;2023-02-04T10:31:40;99935.75;;;1.43;100.00
49627;BME280;35527;54.616;39.786;2023-02-04T10:34:43;99922.13;;;1.38;100.00
49627;BME280;35527;54.616;39.786;2023-02-04T10:38:00;99941.66;;;1.45;100.00
49627;BME280;35527;54.616;39.786;2023-02-04T10:41:05;99939.97;;;1.35;100.00
49627;BME280;35527;54.616;39.786;2023-02-04T10:44:14;99926.34;;;1.11;100.00
49627;BME280;35527;54.616;39.786;2023-02-04T10:47:22;99892.34;;;0.82;100.00
49627;BME280;35527;54.616;39.786;2023-02-04T10:50:28;99939.94;;;1.03;100.00
49627;BME280;35527;54.616;39.786;2023-02-04T10:53:35;99957.75;;;1.00;100.00
49627;BME280;35527;54.616;39.786;2023-02-04T10:56:59;99942.41;;;0.74;100.00
49627;BME280;35527;54.616;39.786;2023-02-04T11:00:19;99952.53;;;0.57;100.00
49627;BME280;35527;54.616;39.786;2023-02-04T11:06:28;99955.16;;;0.77;100.00
49627;BME280;35527;54.616;39.786;2023-02-04T11:09:31;99950.94;;;0.79;100.00
49627;BME280;35527;54.616;39.786;2023-02-04T11:15:42;99955.19;;;0.84;100.00
49627;BME280;35527;54.616;39.786;2023-02-04T11:18:54;99954.34;;;0.87;100.00
49627;BME280;35527;54.616;39.786;2023-02-04T11:22:07;99964.53;;;0.90;100.00
49627;BME280;35527;54.616;39.786;2023-02-04T11:25:35;99964.56;;;0.99;100.00
49627;BME280;35527;54.616;39.786;2023-02-04T11:31:58;99949.31;;;1.25;100.00
49627;BME280;35527;54.616;39.786;2023-02-04T11:38:26;99966.31;;;1.68;100.00
49627;BME280;35527;54.616;39.786;2023-02-04T11:41:34;99982.50;;;1.57;100.00
49627;BME280;35527;54.616;39.786;2023-02-04T11:44:37;99989.28;;;1.43;100.00
49627;BME280;35527;54.616;39.786;2023-02-04T11:47:41;99979.03;;;1.19;100.00
49627;BME280;35527;54.616;39.786;2023-02-04T11:50:57;99975.59;;;1.03;100.00
49627;BME280;35527;54.616;39.786;2023-02-04T11:54:04;99974.78;;;0.98;100.00
49627;BME280;35527;54.616;39.786;2023-02-04T11:57:10;99998.56;;;1.04;100.00
49627;BME280;35527;54.616;39.786;2023-02-04T12:00:18;99995.16;;;1.02;100.00
49627;BME280;35527;54.616;39.786;2023-02-04T12:03:29;99986.66;;;0.96;100.00
49627;BME280;35527;54.616;39.786;2023-02-04T12:06:58;100009.63;;;1.12;100.00
49627;BME280;35527;54.616;39.786;2023-02-04T12:13:22;99995.97;;;0.86;100.00
49627;BME280;35527;54.616;39.786;2023-02-04T12:16:39;100028.19;;;0.82;100.00
49627;BME280;35527;54.616;39.786;2023-02-04T12:19:43;100017.94;;;0.68;100.00
49627;BME280;35527;54.616;39.786;2023-02-04T12:22:47;100027.28;;;0.65;100.00
49627;BME280;35527;54.616;39.786;2023-02-04T12:25:50;100017.00;;;0.43;100.00
49627;BME280;35527;54.616;39.786;2023-02-04T12:28:54;99991.50;;;0.33;100.00
49627;BME280;35527;54.616;39.786;2023-02-04T12:31:58;100030.66;;;0.58;100.00
49627;BME280;35527;54.616;39.786;2023-02-04T12:35:03;100042.59;;;0.70;100.00
49627;BME280;35527;54.616;39.786;2023-02-04T12:38:07;100022.03;;;0.34;100.00
49627;BME280;35527;54.616;39.786;2023-02-04T12:41:14;100043.38;;;0.56;100.00
49627;BME280;35527;54.616;39.786;2023-02-04T12:44:18;100057.06;;;0.77;100.00
49627;BME280;35527;54.616;39.786;2023-02-04T12:47:21;100028.94;;;0.60;100.00
49627;BME280;35527;54.616;39.786;2023-02-04T12:50:26;100056.16;;;0.65;100.00
49627;BME280;35527;54.616;39.786;2023-02-04T12:53:30;100056.09;;;0.56;100.00
49627;BME280;35527;54.616;39.786;2023-02-04T12:56:35;100067.13;;;0.52;100.00
49627;BME280;35527;54.616;39.786;2023-02-04T12:59:38;100070.47;;;0.48;100.00
49627;BME280;35527;54.616;39.786;2023-02-04T13:02:43;100074.75;;;0.49;100.00
49627;BME280;35527;54.616;39.786;2023-02-04T13:05:47;100052.53;;;0.28;100.00
49627;BME280;35527;54.616;39.786;2023-02-04T13:08:52;100042.38;;;0.27;100.00
49627;BME280;35527;54.616;39.786;2023-02-04T13:11:56;100084.91;;;0.43;100.00
49627;BME280;35527;54.616;39.786;2023-02-04T13:15:03;100076.41;;;0.45;100.00
49627;BME280;35527;54.616;39.786;2023-02-04T13:18:06;100055.13;;;0.34;100.00
49627;BME280;35527;54.616;39.786;2023-02-04T13:21:11;100095.88;;;0.39;100.00
49627;BME280;35527;54.616;39.786;2023-02-04T13:24:13;100086.53;;;0.36;100.00
49627;BME280;35527;54.616;39.786;2023-02-04T13:27:18;100093.38;;;0.40;100.00
49627;BME280;35527;54.616;39.786;2023-02-04T13:30:21;100083.13;;;0.36;100.00
49627;BME280;35527;54.616;39.786;2023-02-04T13:33:26;100086.56;;;0.42;100.00
49627;BME280;35527;54.616;39.786;2023-02-04T13:36:30;100106.13;;;0.47;100.00
49627;BME280;35527;54.616;39.786;2023-02-04T13:39:32;100110.38;;;0.51;100.00
49627;BME280;35527;54.616;39.786;2023-02-04T13:42:37;100106.19;;;0.56;100.00
49627;BME280;35527;54.616;39.786;2023-02-04T13:45:39;100095.06;;;0.41;100.00
49627;BME280;35527;54.616;39.786;2023-02-04T13:48:50;100108.63;;;0.42;100.00
49627;BME280;35527;54.616;39.786;2023-02-04T13:51:56;100103.47;;;0.34;100.00
49627;BME280;35527;54.616;39.786;2023-02-04T13:55:00;100121.38;;;0.40;100.00
49627;BME280;35527;54.616;39.786;2023-02-04T13:58:03;100094.91;;;0.21;100.00
49627;BME280;35527;54.616;39.786;2023-02-04T14:01:11;100129.84;;;0.42;100.00
49627;BME280;35527;54.616;39.786;2023-02-04T14:04:17;100131.56;;;0.40;100.00
49627;BME280;35527;54.616;39.786;2023-02-04T14:07:24;100129.75;;;0.27;100.00
49627;BME280;35527;54.616;39.786;2023-02-04T14:10:29;100123.75;;;0.17;100.00
49627;BME280;35527;54.616;39.786;2023-02-04T14:14:00;100132.94;;;0.05;100.00
49627;BME280;35527;54.616;39.786;2023-02-04T14:17:03;100132.84;;;-0.08;100.00
49627;BME280;35527;54.616;39.786;2023-02-04T14:20:10;100152.31;;;-0.10;100.00
49627;BME280;35527;54.616;39.786;2023-02-04T14:23:15;100142.03;;;-0.20;100.00
49627;BME280;35527;54.616;39.786;2023-02-04T14:26:21;100165.88;;;-0.14;100.00
49627;BME280;35527;54.616;39.786;2023-02-04T14:29:24;100141.03;;;-0.35;100.00
49627;BME280;35527;54.616;39.786;2023-02-04T14:32:28;100141.00;;;-0.42;100.00
49627;BME280;35527;54.616;39.786;2023-02-04T14:35:36;100163.97;;;-0.32;100.00
49627;BME280;35527;54.616;39.786;2023-02-04T14:38:40;100178.41;;;-0.29;100.00
49627;BME280;35527;54.616;39.786;2023-02-04T14:42:09;100185.94;;;-0.40;100.00
49627;BME280;35527;54.616;39.786;2023-02-04T14:45:13;100162.03;;;-0.54;100.00
49627;BME280;35527;54.616;39.786;2023-02-04T14:48:18;100166.13;;;-0.67;100.00
49627;BME280;35527;54.616;39.786;2023-02-04T14:51:23;100154.94;;;-0.81;100.00
49627;BME280;35527;54.616;39.786;2023-02-04T14:54:28;100184.59;;;-0.79;100.00
49627;BME280;35527;54.616;39.786;2023-02-04T14:57:30;100164.97;;;-0.89;100.00
49627;BME280;35527;54.616;39.786;2023-02-04T15:00:39;100197.38;;;-0.73;100.00
49627;BME280;35527;54.616;39.786;2023-02-04T15:03:43;100196.50;;;-0.75;100.00
49627;BME280;35527;54.616;39.786;2023-02-04T15:06:47;100199.00;;;-0.78;100.00
49627;BME280;35527;54.616;39.786;2023-02-04T15:09:54;100198.19;;;-0.77;100.00
49627;BME280;35527;54.616;39.786;2023-02-04T15:12:58;100199.81;;;-0.80;100.00
49627;BME280;35527;54.616;39.786;2023-02-04T15:16:02;100215.94;;;-0.80;100.00
49627;BME280;35527;54.616;39.786;2023-02-04T15:19:08;100213.38;;;-0.81;100.00
49627;BME280;35527;54.616;39.786;2023-02-04T15:22:12;100225.38;;;-0.71;100.00
49627;BME280;35527;54.616;39.786;2023-02-04T15:25:20;100199.41;;;-1.09;100.00
49627;BME280;35527;54.616;39.786;2023-02-04T15:28:24;100222.53;;;-0.93;100.00
49627;BME280;35527;54.616;39.786;2023-02-04T15:31:30;100227.56;;;-0.97;100.00
49627;BME280;35527;54.616;39.786;2023-02-04T15:34:33;100229.75;;;-1.20;100.00
49627;BME280;35527;54.616;39.786;2023-02-04T15:37:38;100234.16;;;-1.07;100.00
49627;BME280;35527;54.616;39.786;2023-02-04T15:40:42;100220.59;;;-1.10;100.00
49627;BME280;35527;54.616;39.786;2023-02-04T15:43:47;100248.56;;;-1.07;100.00
49627;BME280;35527;54.616;39.786;2023-02-04T15:46:56;100251.94;;;-1.07;100.00
49627;BME280;35527;54.616;39.786;2023-02-04T15:49:58;100235.81;;;-1.09;100.00
49627;BME280;35527;54.616;39.786;2023-02-04T15:53:03;100248.59;;;-1.04;100.00
49627;BME280;35527;54.616;39.786;2023-02-04T15:56:06;100219.53;;;-1.25;100.00
49627;BME280;35527;54.616;39.786;2023-02-04T15:59:08;100252.78;;;-1.08;100.00
49627;BME280;35527;54.616;39.786;2023-02-04T16:02:12;100257.03;;;-1.08;100.00
49627;BME280;35527;54.616;39.786;2023-02-04T16:05:15;100257.91;;;-1.03;100.00
49627;BME280;35527;54.616;39.786;2023-02-04T16:08:18;100266.31;;;-1.09;100.00
49627;BME280;35527;54.616;39.786;2023-02-04T16:11:22;100268.03;;;-1.06;100.00
49627;BME280;35527;54.616;39.786;2023-02-04T16:14:29;100275.59;;;-1.11;100.00
49627;BME280;35527;54.616;39.786;2023-02-04T16:18:00;100284.97;;;-1.07;100.00
49627;BME280;35527;54.616;39.786;2023-02-04T16:21:03;100277.25;;;-1.13;100.00
49627;BME280;35527;54.616;39.786;2023-02-04T16:24:06;100262.69;;;-1.25;100.00